Terminal Aerodrome Forecast
Issued by NWS

Home | Current Version | Previous Version | Text Only | Print | Product List | Glossary On
Versions: 1 2 3 4 5 6 7 8 9 10 11 12 13 14
000
FTUS46 KMTR 191300 AAA
TAFSJC
TAF AMD
KSJC 191353Z 1914/2012 VRB03KT P6SM FEW015 SCT150
     FM191900 33010KT P6SM SCT150
     FM192200 31015KT P6SM SCT150
     FM200300 31010KT P6SM SCT150=

USA.gov is the U.S. government's official web portal to all federal, state and local government web resources and services.